createdAt,value
2018-12-11T00:00:33.453Z,98455.69
2018-12-11T00:03:04.975Z,98459.55
2018-12-11T00:05:36.978Z,98467.14
2018-12-11T00:08:06.175Z,98464.78
2018-12-11T00:10:37.375Z,98477.70
2018-12-11T00:13:06.542Z,98472.88
2018-12-11T00:15:35.641Z,98466.88
2018-12-11T00:18:04.925Z,98460.84
2018-12-11T00:20:34.236Z,98470.58
2018-12-11T00:23:03.570Z,98476.81
2018-12-11T00:25:32.673Z,98462.66
2018-12-11T00:28:01.778Z,98468.52
2018-12-11T00:30:31.122Z,98464.04
2018-12-11T00:33:00.266Z,98466.09
2018-12-11T00:35:29.512Z,98456.42
2018-12-11T00:37:59.009Z,98459.78
2018-12-11T00:40:28.172Z,98461.84
2018-12-11T00:42:57.535Z,98460.87
2018-12-11T00:45:26.724Z,98373.61
2018-12-11T00:47:56.054Z,98470.09
2018-12-11T00:50:25.354Z,98472.20
2018-12-11T00:52:54.478Z,98473.03
2018-12-11T00:55:23.606Z,98469.30
2018-12-11T00:57:52.873Z,98468.83
2018-12-11T01:00:22.150Z,98473.31
2018-12-11T01:02:51.569Z,98465.22
2018-12-11T01:05:21.822Z,98472.06
2018-12-11T01:07:52.319Z,98472.58
2018-12-11T01:10:21.529Z,98462.33
2018-12-11T01:12:51.643Z,98462.40
2018-12-11T01:15:20.852Z,98466.59
2018-12-11T01:17:50.085Z,98466.60
2018-12-11T01:20:19.746Z,98465.04
2018-12-11T01:22:48.986Z,98476.05
2018-12-11T01:25:18.128Z,98486.28
2018-12-11T01:27:47.545Z,98474.70
2018-12-11T01:30:16.638Z,98489.19
2018-12-11T01:32:45.758Z,98483.67
2018-12-11T01:35:15.162Z,98486.83
2018-12-11T01:37:44.544Z,98491.55
2018-12-11T01:40:13.723Z,98493.38
2018-12-11T01:42:42.878Z,98499.37
2018-12-11T01:45:12.091Z,98495.98
2018-12-11T01:47:41.375Z,98508.05
2018-12-11T01:50:10.605Z,98495.97
2018-12-11T01:52:39.736Z,98494.94
2018-12-11T01:55:08.904Z,98502.28
2018-12-11T01:57:38.064Z,98496.74
2018-12-11T02:00:09.434Z,98499.64
2018-12-11T02:02:39.808Z,98502.80
2018-12-11T02:05:09.190Z,98504.09
2018-12-11T02:07:38.375Z,98501.98
2018-12-11T02:10:08.141Z,98504.12
2018-12-11T02:12:38.338Z,98500.97
2018-12-11T02:15:07.814Z,98501.71
2018-12-11T02:17:39.135Z,98506.71
2018-12-11T02:20:10.686Z,98504.12
2018-12-11T02:22:39.842Z,98494.69
2018-12-11T02:25:09.051Z,98501.59
2018-12-11T02:27:38.183Z,98508.89
2018-12-11T02:30:07.352Z,98500.20
2018-12-11T02:32:36.625Z,98501.01
2018-12-11T02:35:06.294Z,98500.73
2018-12-11T02:37:35.383Z,98500.48
2018-12-11T02:40:05.791Z,98496.58
2018-12-11T02:42:34.860Z,98496.79
2018-12-11T02:45:04.448Z,98490.78
2018-12-11T02:47:33.665Z,98481.35
2018-12-11T02:50:02.889Z,98492.14
2018-12-11T02:52:32.825Z,98478.77
2018-12-11T02:55:01.962Z,98486.14
2018-12-11T02:57:31.385Z,98477.98
2018-12-11T03:00:00.535Z,98477.45
2018-12-11T03:02:30.934Z,98484.58
2018-12-11T03:05:00.044Z,98488.28
2018-12-11T03:07:29.579Z,98480.66
2018-12-11T03:09:58.893Z,98485.64
2018-12-11T03:12:29.088Z,98482.75
2018-12-11T03:14:58.208Z,98486.44
2018-12-11T03:17:27.415Z,98488.31
2018-12-11T03:19:56.692Z,98484.36
2018-12-11T03:22:26.429Z,98488.38
2018-12-11T03:24:55.558Z,98481.22
2018-12-11T03:27:24.794Z,98489.38
2018-12-11T03:29:53.919Z,98486.75
2018-12-11T03:32:23.426Z,98479.66
2018-12-11T03:34:52.662Z,98487.30
2018-12-11T03:37:22.131Z,98481.51
2018-12-11T03:39:52.381Z,98488.37
2018-12-11T03:42:21.526Z,98485.19
2018-12-11T03:44:51.168Z,98475.97
2018-12-11T03:47:20.398Z,98485.20
2018-12-11T03:49:49.624Z,98487.30
2018-12-11T03:52:21.600Z,98486.27
2018-12-11T03:54:49.937Z,98494.40
2018-12-11T03:57:19.103Z,98478.14
2018-12-11T03:59:49.396Z,98477.84
2018-12-11T04:02:19.518Z,98478.16
2018-12-11T04:04:48.687Z,98474.45
2018-12-11T04:07:17.835Z,98476.27
2018-12-11T04:09:47.122Z,98481.25
2018-12-11T04:12:16.338Z,98478.64
2018-12-11T04:14:46.222Z,98486.25
2018-12-11T04:17:15.387Z,98478.89
2018-12-11T04:19:44.553Z,98476.00
2018-12-11T04:22:13.741Z,98477.31
2018-12-11T04:24:43.163Z,98489.94
2018-12-11T04:27:15.441Z,98487.28
2018-12-11T04:29:45.595Z,98489.12
2018-12-11T04:32:14.778Z,98476.48
2018-12-11T04:34:44.012Z,98484.92
2018-12-11T04:37:13.215Z,98473.84
2018-12-11T04:39:42.397Z,98477.28
2018-12-11T04:42:11.478Z,98474.16
2018-12-11T04:44:40.605Z,98471.29
2018-12-11T04:47:09.920Z,98471.73
2018-12-11T04:49:39.343Z,98474.13
2018-12-11T04:52:10.045Z,98472.05
2018-12-11T04:54:39.170Z,98469.68
2018-12-11T04:57:08.445Z,98463.87
2018-12-11T04:59:37.729Z,98463.39
2018-12-11T05:02:06.849Z,98467.03
2018-12-11T05:04:36.750Z,98462.83
2018-12-11T05:07:09.002Z,98466.27
2018-12-11T05:09:39.031Z,98477.59
2018-12-11T05:12:08.372Z,98453.66
2018-12-11T05:14:38.708Z,98475.72
2018-12-11T05:17:07.851Z,98464.40
2018-12-11T05:19:37.022Z,98463.41
2018-12-11T05:22:06.334Z,98467.08
2018-12-11T05:24:37.848Z,98461.84
2018-12-11T05:27:08.119Z,98468.90
2018-12-11T05:29:37.673Z,98465.77
2018-12-11T05:32:07.005Z,98470.52
2018-12-11T05:34:36.269Z,98467.10
2018-12-11T05:37:06.179Z,98465.78
2018-12-11T05:39:35.385Z,98460.51
2018-12-11T05:42:04.725Z,98466.03
2018-12-11T05:44:33.952Z,98464.20
2018-12-11T05:47:03.163Z,98462.09
2018-12-11T05:49:32.317Z,98453.44
2018-12-11T05:52:02.089Z,98448.45
2018-12-11T05:54:32.452Z,98452.41
2018-12-11T05:57:01.874Z,98444.52
2018-12-11T05:59:31.005Z,98442.15
2018-12-11T06:02:00.126Z,98432.69
2018-12-11T06:04:29.319Z,98434.82
2018-12-11T06:06:58.471Z,98434.02
2018-12-11T06:09:27.633Z,98447.94
2018-12-11T06:11:56.844Z,98437.42
2018-12-11T06:14:27.218Z,98457.37
2018-12-11T06:16:57.206Z,98442.42
2018-12-11T06:19:26.390Z,98452.95
2018-12-11T06:21:55.602Z,98448.19
2018-12-11T06:24:25.527Z,98443.45
2018-12-11T06:26:54.659Z,98439.28
2018-12-11T06:29:23.803Z,98436.89
2018-12-11T06:31:53.847Z,98448.72
2018-12-11T06:34:23.645Z,98456.85
2018-12-11T06:36:52.756Z,98443.93
2018-12-11T06:39:22.403Z,98440.78
2018-12-11T06:41:51.648Z,98446.84
2018-12-11T06:44:20.866Z,98452.59
2018-12-11T06:46:50.411Z,98450.72
2018-12-11T06:49:20.597Z,98455.74
2018-12-11T06:51:49.767Z,98449.14
2018-12-11T06:54:18.981Z,98453.89
2018-12-11T06:56:48.140Z,98464.86
2018-12-11T06:59:18.556Z,98463.86
2018-12-11T07:01:47.738Z,98469.34
2018-12-11T07:04:17.223Z,98462.72
2018-12-11T07:06:46.399Z,98477.76
2018-12-11T07:09:15.615Z,98475.05
2018-12-11T07:11:45.024Z,98491.85
2018-12-11T07:14:14.186Z,98491.84
2018-12-11T07:16:43.387Z,98488.95
2018-12-11T07:19:12.627Z,98485.53
2018-12-11T07:21:41.779Z,98482.13
2018-12-11T07:24:11.055Z,98491.04
2018-12-11T07:26:40.175Z,98493.65
2018-12-11T07:29:09.438Z,98492.89
2018-12-11T07:31:38.702Z,98482.91
2018-12-11T07:34:08.081Z,98490.81
2018-12-11T07:36:37.297Z,98500.52
2018-12-11T07:39:07.996Z,98492.13
2018-12-11T07:41:37.762Z,98500.25
2018-12-11T07:44:06.937Z,98495.53
2018-12-11T07:46:36.174Z,98500.00
2018-12-11T07:49:06.056Z,98497.66
2018-12-11T07:51:36.249Z,98490.80
2018-12-11T07:54:05.470Z,98498.94
2018-12-11T07:56:44.989Z,98495.26
2018-12-11T07:59:17.943Z,98505.99
2018-12-11T08:01:47.683Z,98500.73
2018-12-11T08:04:17.155Z,98503.16
2018-12-11T08:06:46.928Z,98506.78
2018-12-11T08:09:16.480Z,98507.04
2018-12-11T08:11:46.331Z,98501.79
2018-12-11T08:14:16.127Z,98512.81
2018-12-11T08:16:45.682Z,98517.05
2018-12-11T08:19:18.056Z,98518.30
2018-12-11T08:21:47.687Z,98525.44
2018-12-11T08:24:17.279Z,98529.34
2018-12-11T08:26:47.342Z,98528.09
2018-12-11T08:29:18.399Z,98533.81
2018-12-11T08:31:48.495Z,98541.19
2018-12-11T08:34:18.247Z,98543.81
2018-12-11T08:36:48.078Z,98542.49
2018-12-11T08:39:18.140Z,98549.53
2018-12-11T08:41:48.857Z,98553.27
2018-12-11T08:44:18.455Z,98553.52
2018-12-11T08:46:47.784Z,98554.05
2018-12-11T08:49:17.259Z,98555.34
2018-12-11T08:51:48.280Z,98562.19
2018-12-11T08:54:17.990Z,98549.31
2018-12-11T08:56:47.545Z,98556.45
2018-12-11T08:59:16.899Z,98563.06
2018-12-11T09:01:47.214Z,98563.06
2018-12-11T09:04:16.549Z,98568.58
2018-12-11T09:06:45.952Z,98565.69
2018-12-11T09:09:15.727Z,98567.78
2018-12-11T09:11:45.521Z,98579.53
2018-12-11T09:14:18.121Z,98575.08
2018-12-11T09:16:48.074Z,98584.47
2018-12-11T09:19:17.429Z,98584.66
2018-12-11T09:21:48.463Z,98585.50
2018-12-11T09:24:17.876Z,98589.16
2018-12-11T09:26:47.283Z,98585.80
2018-12-11T09:29:16.830Z,98583.20
2018-12-11T09:31:46.166Z,98582.38
2018-12-11T09:34:15.935Z,98583.98
2018-12-11T09:36:45.811Z,98592.13
2018-12-11T09:39:15.149Z,98590.80
2018-12-11T09:41:44.886Z,98583.78
2018-12-11T09:44:14.807Z,98571.66
2018-12-11T09:46:49.411Z,98579.11
2018-12-11T09:49:19.399Z,98576.51
2018-12-11T09:51:48.690Z,98582.84
2018-12-11T09:54:18.235Z,98586.23
2018-12-11T09:56:48.088Z,98588.63
2018-12-11T09:59:23.257Z,98587.86
2018-12-11T10:01:49.690Z,98592.77
2018-12-11T10:04:19.189Z,98581.77
2018-12-11T10:06:50.179Z,98584.12
2018-12-11T10:09:20.174Z,98592.04
2018-12-11T10:11:49.550Z,98595.49
2018-12-11T10:14:19.548Z,98598.36
2018-12-11T10:16:49.682Z,98592.83
2018-12-11T10:19:19.262Z,98605.71
2018-12-11T10:21:55.057Z,98602.53
2018-12-11T10:24:25.467Z,98603.34
2018-12-11T10:26:55.224Z,98605.48
2018-12-11T10:29:25.035Z,98613.06
2018-12-11T10:31:54.510Z,98613.91
2018-12-11T10:34:23.868Z,98637.53
2018-12-11T10:36:53.619Z,98621.56
2018-12-11T10:39:24.090Z,98626.47
2018-12-11T10:41:53.643Z,98621.31
2018-12-11T10:44:22.890Z,98625.80
2018-12-11T10:46:51.989Z,98621.11
2018-12-11T10:49:21.453Z,98624.42
2018-12-11T10:51:50.955Z,98631.05
2018-12-11T10:54:20.427Z,98627.89
2018-12-11T10:56:49.821Z,98632.89
2018-12-11T10:59:19.350Z,98635.30
2018-12-11T11:01:52.609Z,98635.91
2018-12-11T11:04:24.432Z,98634.80
2018-12-11T11:06:54.359Z,98639.30
2018-12-11T11:09:23.688Z,98633.67
2018-12-11T11:11:53.447Z,98641.89
2018-12-11T11:14:23.099Z,98644.20
2018-12-11T11:16:53.409Z,98642.34
2018-12-11T11:19:23.310Z,98649.57
2018-12-11T11:21:53.934Z,98655.40
2018-12-11T11:24:23.128Z,98658.22
2018-12-11T11:26:52.655Z,98656.92
2018-12-11T11:29:21.868Z,98658.36
2018-12-11T11:31:51.955Z,98656.48
2018-12-11T11:34:21.633Z,98658.64
2018-12-11T11:36:50.864Z,98660.73
2018-12-11T11:39:20.902Z,98661.47
2018-12-11T11:41:50.065Z,98673.34
2018-12-11T11:44:19.148Z,98667.84
2018-12-11T11:46:48.785Z,98665.70
2018-12-11T11:49:18.500Z,98665.44
2018-12-11T11:51:48.251Z,98671.02
2018-12-11T11:54:17.845Z,98677.29
2018-12-11T11:56:47.234Z,98670.47
2018-12-11T11:59:16.382Z,98664.63
2018-12-11T12:01:45.952Z,98674.41
2018-12-11T12:04:15.289Z,98667.84
2018-12-11T12:06:44.730Z,98673.34
2018-12-11T12:09:14.094Z,98677.57
2018-12-11T12:11:43.411Z,98679.36
2018-12-11T12:14:12.596Z,98678.06
2018-12-11T12:16:41.965Z,98681.55
2018-12-11T12:19:11.509Z,98671.24
2018-12-11T12:21:41.064Z,98682.30
2018-12-11T12:24:10.857Z,98681.47
2018-12-11T12:26:40.754Z,98689.73
2018-12-11T12:29:10.114Z,98688.19
2018-12-11T12:33:04.018Z,98689.73
2018-12-11T12:35:33.356Z,98694.69
2018-12-11T12:38:02.601Z,98699.95
2018-12-11T12:40:32.056Z,98698.63
2018-12-11T12:43:01.466Z,98714.41
2018-12-11T12:45:30.666Z,98698.31
2018-12-11T12:48:00.041Z,98709.33
2018-12-11T12:50:29.551Z,98704.86
2018-12-11T12:52:58.738Z,98701.46
2018-12-11T12:55:28.017Z,98711.43
2018-12-11T12:57:57.167Z,98711.41
2018-12-11T13:00:26.464Z,98713.59
2018-12-11T13:02:55.635Z,98713.31
2018-12-11T13:05:24.868Z,98726.19
2018-12-11T13:07:54.249Z,98725.67
2018-12-11T13:10:24.278Z,98728.82
2018-12-11T13:12:55.874Z,98735.59
2018-12-11T13:15:25.397Z,98744.80
2018-12-11T13:17:54.685Z,98755.83
2018-12-11T13:20:24.192Z,98750.50
2018-12-11T13:22:53.660Z,98765.89
2018-12-11T13:25:22.948Z,98769.77
2018-12-11T13:27:52.399Z,98771.34
2018-12-11T13:30:21.829Z,98773.31
2018-12-11T13:32:50.948Z,98785.77
2018-12-11T13:35:20.286Z,98781.55
2018-12-11T13:37:49.425Z,98778.28
2018-12-11T13:40:21.173Z,98791.86
2018-12-11T13:42:50.434Z,98794.82
2018-12-11T13:45:19.574Z,98792.72
2018-12-11T13:47:48.746Z,98795.95
2018-12-11T13:50:18.082Z,98801.00
2018-12-11T13:52:47.439Z,98796.20
2018-12-11T13:55:18.109Z,98810.98
2018-12-11T13:57:47.326Z,98808.50
2018-12-11T14:00:18.215Z,98811.75
2018-12-11T14:02:47.529Z,98822.95
2018-12-11T14:05:17.362Z,98826.20
2018-12-11T14:07:46.593Z,98828.36
2018-12-11T14:10:15.715Z,98825.33
2018-12-11T14:12:44.929Z,98832.61
2018-12-11T14:15:14.212Z,98841.43
2018-12-11T14:17:43.397Z,98840.14
2018-12-11T14:20:14.264Z,98841.83
2018-12-11T14:22:43.893Z,98847.91
2018-12-11T14:25:13.443Z,98846.05
2018-12-11T14:27:43.747Z,98839.28
2018-12-11T14:30:13.236Z,98845.66
2018-12-11T14:32:42.531Z,98849.70
2018-12-11T14:35:11.850Z,98846.16
2018-12-11T14:37:41.830Z,98845.69
2018-12-11T14:40:11.837Z,98852.25
2018-12-11T14:42:41.245Z,98851.56
2018-12-11T14:45:13.464Z,98846.68
2018-12-11T14:47:42.799Z,98838.84
2018-12-11T14:50:12.035Z,98840.45
2018-12-11T14:52:43.830Z,98844.24
2018-12-11T14:55:13.194Z,98843.78
2018-12-11T14:57:42.426Z,98844.83
2018-12-11T15:00:12.196Z,98844.61
2018-12-11T15:02:41.775Z,98849.89
2018-12-11T15:05:11.176Z,98843.08
2018-12-11T15:07:40.834Z,98851.89
2018-12-11T15:10:12.208Z,98848.98
2018-12-11T15:12:41.662Z,98852.70
2018-12-11T15:15:11.988Z,98851.20
2018-12-11T15:17:41.762Z,98855.42
2018-12-11T15:20:11.172Z,98854.88
2018-12-11T15:22:43.346Z,98846.57
2018-12-11T15:25:12.605Z,98850.62
2018-12-11T15:27:42.173Z,98853.88
2018-12-11T15:30:11.338Z,98855.25
2018-12-11T15:32:40.497Z,98851.84
2018-12-11T15:35:09.715Z,98855.30
2018-12-11T15:37:39.263Z,98851.92
2018-12-11T15:40:09.856Z,98861.98
2018-12-11T15:42:40.339Z,98852.99
2018-12-11T15:45:09.599Z,98849.27
2018-12-11T15:47:38.790Z,98850.84
2018-12-11T15:50:08.989Z,98855.14
2018-12-11T15:52:38.207Z,98856.09
2018-12-11T15:55:07.657Z,98855.89
2018-12-11T15:57:37.162Z,98850.58
2018-12-11T16:00:08.762Z,98857.06
2018-12-11T16:02:38.027Z,98857.47
2018-12-11T16:05:07.849Z,98853.39
2018-12-11T16:07:37.487Z,98862.47
2018-12-11T16:10:07.808Z,98856.64
2018-12-11T16:12:37.106Z,98858.09
2018-12-11T16:15:07.706Z,98862.86
2018-12-11T16:17:37.309Z,98864.84
2018-12-11T16:20:06.677Z,98860.66
2018-12-11T16:22:36.713Z,98866.46
2018-12-11T16:25:08.578Z,98872.13
2018-12-11T16:27:38.848Z,98874.94
2018-12-11T16:30:08.627Z,98866.94
2018-12-11T16:32:38.103Z,98874.31
2018-12-11T16:35:07.949Z,98874.23
2018-12-11T16:37:38.048Z,98877.45
2018-12-11T16:40:07.723Z,98882.13
2018-12-11T16:42:36.975Z,98878.91
2018-12-11T16:45:07.442Z,98875.55
2018-12-11T16:47:37.492Z,98881.10
2018-12-11T16:50:11.426Z,98883.51
2018-12-11T16:52:41.260Z,98883.88
2018-12-11T16:55:10.780Z,98884.34
2018-12-11T16:57:43.513Z,98886.10
2018-12-11T17:00:14.288Z,98888.00
2018-12-11T17:02:43.488Z,98891.61
2018-12-11T17:05:13.240Z,98893.54
2018-12-11T17:07:42.784Z,98892.01
2018-12-11T17:10:12.350Z,98895.59
2018-12-11T17:12:42.179Z,98898.36
2018-12-11T17:15:15.472Z,98897.11
2018-12-11T17:17:45.011Z,98899.89
2018-12-11T17:20:14.534Z,98907.59
2018-12-11T17:22:48.419Z,98905.91
2018-12-11T17:25:17.729Z,98901.13
2018-12-11T17:27:48.051Z,98900.25
2018-12-11T17:30:17.379Z,98899.04
2018-12-11T17:32:46.642Z,98904.34
2018-12-11T17:35:16.478Z,98914.80
2018-12-11T17:37:45.857Z,98912.11
2018-12-11T17:40:15.569Z,98911.85
2018-12-11T17:42:44.879Z,98909.11
2018-12-11T17:45:14.055Z,98912.47
2018-12-11T17:47:43.908Z,98913.67
2018-12-11T17:50:13.235Z,98920.09
2018-12-11T17:52:42.895Z,98914.58
2018-12-11T17:55:12.458Z,98920.97
2018-12-11T17:57:41.969Z,98918.31
2018-12-11T18:00:12.043Z,98918.20
2018-12-11T18:02:41.989Z,98914.59
2018-12-11T18:05:11.275Z,98924.58
2018-12-11T18:07:40.498Z,98924.91
2018-12-11T18:10:09.960Z,98926.41
2018-12-11T18:12:39.141Z,98924.19
2018-12-11T18:15:08.435Z,98920.28
2018-12-11T18:17:37.680Z,98923.69
2018-12-11T18:20:07.629Z,98928.63
2018-12-11T18:22:36.858Z,98928.08
2018-12-11T18:25:06.357Z,98926.48
2018-12-11T18:27:35.575Z,98930.56
2018-12-11T18:30:06.150Z,98936.47
2018-12-11T18:32:35.430Z,98934.45
2018-12-11T18:35:06.138Z,98935.86
2018-12-11T18:37:35.412Z,98937.13
2018-12-11T18:40:06.949Z,98937.28
2018-12-11T18:42:36.477Z,98937.42
2018-12-11T18:45:06.487Z,98939.64
2018-12-11T18:47:35.579Z,98936.04
2018-12-11T18:50:05.176Z,98944.20
2018-12-11T18:52:34.473Z,98935.52
2018-12-11T18:55:04.104Z,98930.05
2018-12-11T18:57:33.399Z,98939.06
2018-12-11T19:00:02.666Z,98942.64
2018-12-11T19:02:33.164Z,98941.07
2018-12-11T19:05:02.544Z,98933.27
2018-12-11T19:07:33.459Z,98946.58
2018-12-11T19:10:02.725Z,98950.16
2018-12-11T19:12:32.607Z,98932.86
2018-12-11T19:15:04.722Z,98945.05
2018-12-11T19:17:33.074Z,98943.84
2018-12-11T19:20:03.039Z,98947.53
2018-12-11T19:22:34.287Z,98946.28
2018-12-11T19:25:03.809Z,98942.90
2018-12-11T19:27:34.493Z,98948.63
2018-12-11T19:30:03.973Z,98948.45
2018-12-11T19:32:34.632Z,98957.64
2018-12-11T19:35:04.471Z,98945.01
2018-12-11T19:37:35.763Z,98958.19
2018-12-11T19:40:06.577Z,98954.53
2018-12-11T19:42:36.689Z,98958.73
2018-12-11T19:45:07.279Z,98957.13
2018-12-11T19:47:36.393Z,98963.80
2018-12-11T19:50:06.311Z,98957.27
2018-12-11T19:52:39.606Z,98964.90
2018-12-11T19:55:07.367Z,98971.94
2018-12-11T19:57:37.292Z,98971.87
2018-12-11T20:00:09.561Z,98966.32
2018-12-11T20:02:41.535Z,98961.97
2018-12-11T20:05:10.930Z,98971.24
2018-12-11T20:07:40.096Z,98969.24
2018-12-11T20:10:18.346Z,98969.60
2018-12-11T20:12:47.919Z,98984.27
2018-12-11T20:15:17.295Z,98974.93
2018-12-11T20:17:46.450Z,98970.30
2018-12-11T20:20:24.645Z,98979.34
2018-12-11T20:22:54.809Z,98985.29
2018-12-11T20:25:24.520Z,98977.89
2018-12-11T20:27:53.739Z,98976.58
2018-12-11T20:30:22.853Z,98981.25
2018-12-11T20:32:53.274Z,98987.00
2018-12-11T20:35:22.698Z,98987.92
2018-12-11T20:37:51.921Z,98989.20
2018-12-11T20:40:21.664Z,98986.94
2018-12-11T20:42:50.864Z,98982.05
2018-12-11T20:45:22.636Z,98984.67
2018-12-11T20:47:52.176Z,98988.55
2018-12-11T20:50:21.349Z,98991.83
2018-12-11T20:52:50.949Z,98988.44
2018-12-11T20:55:20.113Z,98987.08
2018-12-11T20:57:49.413Z,98985.33
2018-12-11T21:00:19.041Z,98993.52
2018-12-11T21:02:48.849Z,98986.17
2018-12-11T21:05:17.981Z,98994.53
2018-12-11T21:07:47.090Z,98986.02
2018-12-11T21:10:16.247Z,98996.14
2018-12-11T21:12:45.487Z,99005.73
2018-12-11T21:15:15.111Z,99003.98
2018-12-11T21:17:44.501Z,99008.61
2018-12-11T21:20:14.210Z,99012.12
2018-12-11T21:22:44.538Z,99016.41
2018-12-11T21:25:13.834Z,99017.80
2018-12-11T21:27:43.075Z,99015.63
2018-12-11T21:30:12.625Z,99017.04
2018-12-11T21:32:41.880Z,99016.13
2018-12-11T21:35:11.348Z,99016.83
2018-12-11T21:37:41.289Z,99022.25
2018-12-11T21:40:10.622Z,99027.86
2018-12-11T21:42:39.791Z,99032.59
2018-12-11T21:45:09.111Z,99043.83
2018-12-11T21:47:38.354Z,99051.28
2018-12-11T21:50:08.778Z,99046.87
2018-12-11T21:52:38.505Z,99046.33
2018-12-11T21:55:09.152Z,99039.89
2018-12-11T21:57:38.351Z,99039.22
2018-12-11T22:00:10.427Z,99052.21
2018-12-11T22:02:40.658Z,99056.87
2018-12-11T22:05:09.814Z,99055.61
2018-12-11T22:07:39.138Z,99061.45
2018-12-11T22:10:08.445Z,99056.25
2018-12-11T22:12:37.793Z,99056.45
2018-12-11T22:15:07.610Z,99062.55
2018-12-11T22:17:36.773Z,99069.33
2018-12-11T22:20:06.809Z,99067.59
2018-12-11T22:22:36.116Z,99068.66
2018-12-11T22:25:05.629Z,99061.33
2018-12-11T22:27:35.195Z,99065.34
2018-12-11T22:30:04.512Z,99068.66
2018-12-11T22:32:33.949Z,99066.41
2018-12-11T22:35:03.212Z,99070.61
2018-12-11T22:37:33.703Z,99066.70
2018-12-11T22:40:02.827Z,99065.81
2018-12-11T22:42:31.944Z,99063.70
2018-12-11T22:45:01.109Z,99063.64
2018-12-11T22:47:30.207Z,99067.48
2018-12-11T22:50:01.335Z,99071.41
2018-12-11T22:52:30.536Z,99077.05
2018-12-11T22:54:59.992Z,99072.59
2018-12-11T22:57:29.149Z,99070.94
2018-12-11T22:59:59.355Z,99075.91
2018-12-11T23:02:28.602Z,99074.45
2018-12-11T23:04:57.769Z,99084.58
2018-12-11T23:07:26.919Z,99087.59
2018-12-11T23:09:56.054Z,99091.66
2018-12-11T23:12:25.173Z,99098.83
2018-12-11T23:14:54.456Z,99098.09
2018-12-11T23:17:23.546Z,99098.23
2018-12-11T23:19:53.086Z,99092.83
2018-12-11T23:22:22.300Z,99097.04
2018-12-11T23:24:52.323Z,99103.61
2018-12-11T23:27:21.658Z,99103.66
2018-12-11T23:29:51.094Z,99105.61
2018-12-11T23:32:20.249Z,99104.38
2018-12-11T23:34:50.965Z,99100.68
2018-12-11T23:37:20.781Z,99112.44
2018-12-11T23:39:50.425Z,99116.11
2018-12-11T23:42:19.590Z,99122.77
2018-12-11T23:44:48.839Z,99109.67
2018-12-11T23:47:18.135Z,99118.06
2018-12-11T23:49:47.363Z,99123.78
2018-12-11T23:52:16.615Z,99123.33
2018-12-11T23:54:45.817Z,99131.58
2018-12-11T23:57:15.279Z,99132.87
2018-12-11T23:59:44.534Z,99134.94
